createdAt,value
2023-02-16T00:00:54.592Z,29.65
2023-02-16T00:02:57.484Z,28.38
2023-02-16T00:05:01.618Z,26.63
2023-02-16T00:07:04.430Z,28.13
2023-02-16T00:09:07.255Z,27.33
2023-02-16T00:11:34.538Z,29.30
2023-02-16T00:13:45.295Z,25.63
2023-02-16T00:15:48.619Z,27.25
2023-02-16T00:17:51.447Z,24.13
2023-02-16T00:19:54.233Z,24.90
2023-02-16T00:21:59.786Z,25.33
2023-02-16T00:24:02.518Z,25.30
2023-02-16T00:26:06.438Z,26.10
2023-02-16T00:28:15.623Z,23.65
2023-02-16T00:30:22.939Z,24.67
2023-02-16T00:32:26.338Z,22.73
2023-02-16T00:34:35.046Z,23.83
2023-02-16T00:36:37.852Z,20.92
2023-02-16T00:38:42.991Z,22.15
2023-02-16T00:40:45.896Z,19.05
2023-02-16T00:42:49.038Z,19.63
2023-02-16T00:44:54.848Z,20.55
2023-02-16T00:46:57.944Z,23.52
2023-02-16T00:49:00.698Z,23.70
2023-02-16T00:51:13.734Z,22.10
2023-02-16T00:53:23.425Z,21.60
2023-02-16T00:55:29.502Z,22.00
2023-02-16T00:57:35.223Z,21.33
2023-02-16T00:59:38.172Z,18.88
2023-02-16T01:01:40.937Z,19.95
2023-02-16T01:03:44.970Z,22.67
2023-02-16T01:05:48.265Z,22.23
2023-02-16T01:08:08.854Z,23.65
2023-02-16T01:10:29.909Z,19.63
2023-02-16T01:12:34.114Z,19.77
2023-02-16T01:14:36.964Z,20.08
2023-02-16T01:16:42.299Z,21.85
2023-02-16T01:18:45.792Z,22.38
2023-02-16T01:20:49.324Z,20.00
2023-02-16T01:22:52.408Z,20.60
2023-02-16T01:24:55.173Z,22.02
2023-02-16T01:26:58.018Z,20.52
2023-02-16T01:29:02.198Z,22.27
2023-02-16T01:31:06.156Z,22.92
2023-02-16T01:33:09.672Z,22.88
2023-02-16T01:35:12.806Z,21.00
2023-02-16T01:37:17.036Z,21.23
2023-02-16T01:39:21.544Z,22.27
2023-02-16T01:41:38.380Z,24.58
2023-02-16T01:43:48.366Z,22.33
2023-02-16T01:46:00.870Z,21.70
2023-02-16T01:48:06.249Z,19.75
2023-02-16T01:50:16.967Z,20.90
2023-02-16T01:52:28.386Z,20.48
2023-02-16T01:54:39.774Z,23.30
2023-02-16T01:56:46.855Z,21.40
2023-02-16T01:58:54.965Z,18.90
2023-02-16T02:01:31.695Z,22.60
2023-02-16T02:03:54.486Z,24.02
2023-02-16T02:05:57.295Z,21.88
2023-02-16T02:08:08.624Z,21.27
2023-02-16T02:10:18.342Z,20.05
2023-02-16T02:12:29.705Z,22.10
2023-02-16T02:14:36.780Z,24.52
2023-02-16T02:16:40.545Z,24.67
2023-02-16T02:18:45.240Z,25.85
2023-02-16T02:21:27.189Z,19.52
2023-02-16T02:23:50.180Z,23.75
2023-02-16T02:26:24.165Z,21.40
2023-02-16T02:28:37.980Z,22.80
2023-02-16T02:30:50.285Z,21.25
2023-02-16T02:33:36.099Z,22.20
2023-02-16T02:35:49.415Z,21.13
2023-02-16T02:37:59.285Z,22.38
2023-02-16T02:40:08.141Z,22.05
2023-02-16T02:42:16.979Z,23.52
2023-02-16T02:44:29.890Z,24.35
2023-02-16T02:46:35.154Z,25.08
2023-02-16T02:48:39.646Z,23.15
2023-02-16T02:51:08.429Z,25.60
2023-02-16T02:53:14.914Z,23.77
2023-02-16T02:55:36.236Z,23.40
2023-02-16T02:58:00.698Z,25.00
2023-02-16T03:00:31.404Z,23.50
2023-02-16T03:02:36.808Z,24.45
2023-02-16T03:04:40.597Z,24.52
2023-02-16T03:06:49.172Z,25.08
2023-02-16T03:08:56.744Z,22.90
2023-02-16T03:11:21.863Z,24.13
2023-02-16T03:13:29.512Z,23.60
2023-02-16T03:15:34.869Z,25.80
2023-02-16T03:17:56.690Z,24.05
2023-02-16T03:20:19.913Z,26.77
2023-02-16T03:22:40.000Z,24.52
2023-02-16T03:25:00.705Z,21.67
2023-02-16T03:27:21.258Z,24.65
2023-02-16T03:29:27.196Z,22.42
2023-02-16T03:31:34.818Z,22.90
2023-02-16T03:33:38.715Z,21.63
2023-02-16T03:35:41.802Z,22.20
2023-02-16T03:37:45.927Z,22.65
2023-02-16T03:40:07.133Z,22.88
2023-02-16T03:42:09.960Z,22.30
2023-02-16T03:44:12.885Z,23.77
2023-02-16T03:46:15.786Z,23.25
2023-02-16T03:48:20.316Z,23.98
2023-02-16T03:50:23.610Z,23.60
2023-02-16T03:52:26.363Z,24.88
2023-02-16T03:54:29.075Z,21.45
2023-02-16T03:56:31.842Z,23.63
2023-02-16T03:58:34.923Z,21.52
2023-02-16T04:00:38.542Z,22.58
2023-02-16T04:02:41.332Z,22.58
2023-02-16T04:04:45.463Z,23.95
2023-02-16T04:06:48.219Z,21.27
2023-02-16T04:08:51.796Z,22.05
2023-02-16T04:10:56.731Z,24.75
2023-02-16T04:15:01.115Z,23.27
2023-02-16T04:17:03.959Z,25.42
2023-02-16T04:19:07.874Z,21.65
2023-02-16T04:21:11.980Z,20.17
2023-02-16T04:23:14.799Z,24.73
2023-02-16T04:25:18.693Z,22.67
2023-02-16T04:27:21.532Z,24.98
2023-02-16T04:29:24.310Z,23.92
2023-02-16T04:31:27.258Z,25.77
2023-02-16T04:33:30.075Z,22.15
2023-02-16T04:35:32.878Z,25.83
2023-02-16T04:37:37.044Z,23.67
2023-02-16T04:39:39.761Z,24.98
2023-02-16T04:41:42.560Z,24.00
2023-02-16T04:43:45.285Z,25.75
2023-02-16T04:45:48.144Z,25.55
2023-02-16T04:47:50.970Z,24.88
2023-02-16T04:49:54.503Z,26.08
2023-02-16T04:51:57.319Z,24.10
2023-02-16T04:54:01.454Z,28.08
2023-02-16T04:56:04.483Z,26.65
2023-02-16T04:58:07.349Z,27.00
2023-02-16T05:00:12.774Z,23.67
2023-02-16T05:02:15.500Z,24.77
2023-02-16T05:04:18.335Z,22.40
2023-02-16T05:06:21.309Z,26.25
2023-02-16T05:08:24.249Z,27.23
2023-02-16T05:10:28.644Z,24.73
2023-02-16T05:12:49.921Z,25.15
2023-02-16T05:14:51.795Z,22.67
2023-02-16T05:16:55.616Z,27.40
2023-02-16T05:18:58.857Z,29.17
2023-02-16T05:21:19.248Z,24.52
2023-02-16T05:23:22.088Z,28.33
2023-02-16T05:25:24.833Z,24.55
2023-02-16T05:27:31.799Z,24.52
2023-02-16T05:29:35.036Z,25.95
2023-02-16T05:31:37.872Z,24.67
2023-02-16T05:33:40.739Z,28.13
2023-02-16T05:35:43.500Z,23.67
2023-02-16T05:37:46.354Z,25.63
2023-02-16T05:39:49.227Z,26.23
2023-02-16T05:41:52.443Z,26.05
2023-02-16T05:43:58.347Z,24.67
2023-02-16T05:46:01.195Z,27.88
2023-02-16T05:48:03.954Z,25.60
2023-02-16T05:50:08.010Z,24.88
2023-02-16T05:52:10.812Z,27.35
2023-02-16T05:54:17.401Z,26.15
2023-02-16T05:56:21.277Z,28.77
2023-02-16T05:58:24.082Z,26.10
2023-02-16T06:00:33.346Z,26.63
2023-02-16T06:02:36.194Z,27.23
2023-02-16T06:04:39.056Z,27.50
2023-02-16T06:06:42.129Z,24.73
2023-02-16T06:08:45.056Z,26.50
2023-02-16T06:10:47.762Z,25.50
2023-02-16T06:12:50.569Z,28.77
2023-02-16T06:14:53.382Z,27.45
2023-02-16T06:16:58.700Z,29.67
2023-02-16T06:19:01.875Z,29.42
2023-02-16T06:21:05.275Z,26.63
2023-02-16T06:23:10.886Z,27.90
2023-02-16T06:25:13.693Z,28.38
2023-02-16T06:27:16.440Z,27.52
2023-02-16T06:29:19.264Z,24.27
2023-02-16T06:31:23.427Z,26.55
2023-02-16T06:33:27.556Z,26.00
2023-02-16T06:35:30.635Z,30.27
2023-02-16T06:37:33.355Z,28.17
2023-02-16T06:39:36.070Z,27.33
2023-02-16T06:41:40.338Z,29.50
2023-02-16T06:43:43.360Z,27.10
2023-02-16T06:45:46.295Z,30.17
2023-02-16T06:47:49.137Z,25.85
2023-02-16T06:49:53.208Z,25.88
2023-02-16T06:51:56.103Z,25.15
2023-02-16T06:53:59.031Z,26.08
2023-02-16T06:56:01.784Z,25.85
2023-02-16T06:58:04.686Z,26.52
2023-02-16T07:00:09.267Z,29.05
2023-02-16T07:02:12.240Z,26.55
2023-02-16T07:04:15.150Z,29.08
2023-02-16T07:06:19.844Z,28.17
2023-02-16T07:08:23.270Z,27.95
2023-02-16T07:10:26.062Z,26.75
2023-02-16T07:12:28.784Z,25.95
2023-02-16T07:14:31.939Z,24.63
2023-02-16T07:16:34.849Z,25.45
2023-02-16T07:18:37.660Z,27.15
2023-02-16T07:20:40.546Z,28.70
2023-02-16T07:22:44.670Z,30.45
2023-02-16T07:24:47.446Z,24.27
2023-02-16T07:26:50.224Z,25.02
2023-02-16T07:28:53.497Z,25.08
2023-02-16T07:30:56.394Z,26.63
2023-02-16T07:32:59.789Z,27.13
2023-02-16T07:35:02.976Z,31.38
2023-02-16T07:37:05.728Z,27.95
2023-02-16T07:39:09.841Z,29.88
2023-02-16T07:41:13.257Z,26.90
2023-02-16T07:43:16.284Z,29.55
2023-02-16T07:45:21.459Z,27.27
2023-02-16T07:49:26.820Z,28.15
2023-02-16T07:51:31.701Z,28.25
2023-02-16T07:53:35.854Z,28.63
2023-02-16T07:55:41.764Z,27.98
2023-02-16T07:57:44.901Z,27.52
2023-02-16T07:59:47.674Z,28.35
2023-02-16T08:01:50.513Z,28.02
2023-02-16T08:03:53.871Z,26.13
2023-02-16T08:05:56.630Z,27.67
2023-02-16T08:07:59.415Z,25.48
2023-02-16T08:10:02.566Z,26.75
2023-02-16T08:12:09.187Z,24.55
2023-02-16T08:14:12.245Z,27.02
2023-02-16T08:16:17.158Z,26.10
2023-02-16T08:20:28.411Z,25.50
2023-02-16T08:22:38.198Z,25.98
2023-02-16T08:24:40.992Z,27.98
2023-02-16T08:26:44.738Z,25.63
2023-02-16T08:28:50.669Z,23.48
2023-02-16T08:30:56.010Z,27.20
2023-02-16T08:33:00.996Z,27.65
2023-02-16T08:37:06.647Z,26.05
2023-02-16T08:39:15.832Z,28.40
2023-02-16T08:41:19.039Z,26.35
2023-02-16T08:43:22.741Z,26.77
2023-02-16T08:45:26.953Z,26.40
2023-02-16T08:47:29.921Z,26.85
2023-02-16T08:49:32.958Z,28.98
2023-02-16T08:51:38.698Z,29.88
2023-02-16T08:53:41.560Z,27.27
2023-02-16T08:55:52.605Z,29.48
2023-02-16T08:57:55.399Z,28.92
2023-02-16T09:00:12.086Z,29.35
2023-02-16T09:02:18.096Z,27.88
2023-02-16T09:04:21.426Z,26.83
2023-02-16T09:06:24.307Z,31.65
2023-02-16T09:08:27.175Z,30.55
2023-02-16T09:10:29.952Z,29.02
2023-02-16T09:12:35.309Z,29.55
2023-02-16T09:14:38.197Z,28.30
2023-02-16T09:16:45.429Z,28.40
2023-02-16T09:18:50.838Z,30.33
2023-02-16T09:20:53.627Z,29.63
2023-02-16T09:22:56.610Z,31.38
2023-02-16T09:24:59.524Z,27.42
2023-02-16T09:27:02.835Z,30.63
2023-02-16T09:29:06.997Z,31.48
2023-02-16T09:31:11.535Z,28.25
2023-02-16T09:33:14.891Z,27.42
2023-02-16T09:35:19.126Z,25.33
2023-02-16T09:37:22.484Z,26.23
2023-02-16T09:39:25.291Z,28.30
2023-02-16T09:41:34.875Z,27.45
2023-02-16T09:43:50.585Z,26.50
2023-02-16T09:45:54.851Z,28.52
2023-02-16T09:47:59.375Z,29.23
2023-02-16T09:50:05.100Z,27.65
2023-02-16T09:52:18.849Z,27.50
2023-02-16T09:54:34.635Z,28.45
2023-02-16T09:56:41.123Z,27.17
2023-02-16T09:58:48.846Z,31.05
2023-02-16T10:00:55.172Z,27.70
2023-02-16T10:03:02.897Z,29.35
2023-02-16T10:05:20.160Z,26.63
2023-02-16T10:07:33.476Z,28.42
2023-02-16T10:09:37.028Z,29.48
2023-02-16T10:11:46.620Z,30.88
2023-02-16T10:13:54.783Z,28.63
2023-02-16T10:15:59.209Z,29.00
2023-02-16T10:18:07.393Z,26.77
2023-02-16T10:20:14.694Z,26.80
2023-02-16T10:22:21.543Z,27.98
2023-02-16T10:24:27.037Z,29.80
2023-02-16T10:26:35.318Z,30.42
2023-02-16T10:28:43.436Z,30.25
2023-02-16T10:30:51.895Z,26.25
2023-02-16T10:32:57.667Z,26.67
2023-02-16T10:35:11.307Z,25.50
2023-02-16T10:37:40.664Z,23.70
2023-02-16T10:39:52.041Z,25.58
2023-02-16T10:42:03.491Z,29.67
2023-02-16T10:44:14.170Z,29.35
2023-02-16T10:46:23.164Z,25.27
2023-02-16T10:48:26.243Z,25.58
2023-02-16T10:50:34.154Z,24.73
2023-02-16T10:52:40.481Z,25.23
2023-02-16T10:54:44.581Z,25.50
2023-02-16T10:56:54.092Z,24.98
2023-02-16T10:58:58.393Z,23.95
2023-02-16T11:01:08.792Z,25.02
2023-02-16T11:03:13.761Z,25.15
2023-02-16T11:05:38.030Z,27.05
2023-02-16T11:07:53.684Z,24.48
2023-02-16T11:10:01.933Z,23.58
2023-02-16T11:12:15.940Z,23.63
2023-02-16T11:14:23.045Z,24.75
2023-02-16T11:16:27.046Z,25.02
2023-02-16T11:18:34.051Z,25.73
2023-02-16T11:20:53.916Z,26.35
2023-02-16T11:23:14.880Z,24.15
2023-02-16T11:25:25.834Z,25.13
2023-02-16T11:27:29.812Z,23.73
2023-02-16T11:29:32.918Z,23.03
2023-02-16T11:31:39.190Z,23.30
2023-02-16T11:33:43.990Z,26.90
2023-02-16T11:35:47.746Z,24.08
2023-02-16T11:37:51.025Z,23.20
2023-02-16T11:39:56.678Z,22.85
2023-02-16T11:42:04.553Z,23.45
2023-02-16T11:44:27.098Z,21.42
2023-02-16T11:46:40.745Z,25.05
2023-02-16T11:48:45.012Z,25.77
2023-02-16T11:50:58.383Z,25.00
2023-02-16T11:53:16.696Z,22.42
2023-02-16T11:55:27.251Z,25.40
2023-02-16T11:57:33.895Z,22.60
2023-02-16T11:59:38.909Z,23.45
2023-02-16T12:01:54.350Z,23.65
2023-02-16T12:06:32.082Z,22.23
2023-02-16T12:08:48.131Z,21.92
2023-02-16T12:11:07.515Z,23.83
2023-02-16T12:13:22.951Z,21.00
2023-02-16T12:15:31.611Z,21.42
2023-02-16T12:17:50.621Z,22.60
2023-02-16T12:20:01.618Z,20.40
2023-02-16T12:22:20.075Z,21.60
2023-02-16T12:24:37.076Z,21.98
2023-02-16T12:26:47.695Z,20.40
2023-02-16T12:29:01.459Z,21.08
2023-02-16T12:31:17.312Z,21.63
2023-02-16T12:33:36.374Z,19.02
2023-02-16T12:35:51.625Z,23.10
2023-02-16T12:38:03.641Z,19.63
2023-02-16T12:40:21.306Z,21.42
2023-02-16T12:42:41.225Z,20.30
2023-02-16T12:44:49.180Z,20.42
2023-02-16T12:47:01.900Z,20.77
2023-02-16T12:49:13.374Z,21.13
2023-02-16T12:51:20.312Z,22.40
2023-02-16T12:53:28.610Z,19.95
2023-02-16T12:55:36.914Z,21.25
2023-02-16T12:57:58.088Z,18.35
2023-02-16T13:00:05.247Z,18.98
2023-02-16T13:02:16.182Z,21.17
2023-02-16T13:04:24.906Z,21.85
2023-02-16T13:06:33.872Z,17.10
2023-02-16T13:08:42.303Z,17.45
2023-02-16T13:10:55.791Z,18.40
2023-02-16T13:13:03.588Z,16.25
2023-02-16T13:15:14.204Z,18.20
2023-02-16T13:17:21.511Z,15.10
2023-02-16T13:19:25.755Z,17.02
2023-02-16T13:22:08.985Z,13.63
2023-02-16T13:24:18.406Z,13.05
2023-02-16T13:26:36.339Z,12.07
2023-02-16T13:28:54.727Z,12.02
2023-02-16T13:31:15.433Z,12.45
2023-02-16T13:33:37.423Z,10.00
2023-02-16T13:36:05.025Z,10.93
2023-02-16T13:38:27.864Z,11.55
2023-02-16T13:41:00.657Z,10.23
2023-02-16T13:43:14.642Z,9.02
2023-02-16T13:45:21.786Z,9.82
2023-02-16T13:47:28.886Z,8.00
2023-02-16T13:49:36.210Z,8.00
2023-02-16T13:51:44.573Z,9.00
2023-02-16T13:53:55.618Z,8.07
2023-02-16T13:56:17.644Z,8.93
2023-02-16T13:58:32.568Z,7.07
2023-02-16T14:00:38.423Z,7.25
2023-02-16T14:02:58.430Z,6.18
2023-02-16T14:05:04.119Z,6.88
2023-02-16T14:07:33.302Z,5.90
2023-02-16T14:09:48.729Z,6.57
2023-02-16T14:12:19.691Z,6.38
2023-02-16T14:14:31.124Z,6.85
2023-02-16T14:16:34.999Z,6.35
2023-02-16T14:18:43.797Z,6.60
2023-02-16T14:20:46.636Z,6.60
2023-02-16T14:22:51.862Z,6.10
2023-02-16T14:24:57.061Z,6.43
2023-02-16T14:27:02.743Z,8.18
2023-02-16T14:29:18.460Z,7.32
2023-02-16T14:31:23.815Z,7.28
2023-02-16T14:33:41.377Z,7.47
2023-02-16T14:35:48.479Z,6.32
2023-02-16T14:37:57.881Z,6.45
2023-02-16T14:40:42.313Z,5.90
2023-02-16T14:42:52.195Z,6.18
2023-02-16T14:45:11.950Z,6.05
2023-02-16T14:47:28.001Z,5.80
2023-02-16T14:49:59.141Z,5.38
2023-02-16T14:52:49.944Z,7.32
2023-02-16T14:55:12.210Z,5.90
2023-02-16T14:57:17.005Z,6.60
2023-02-16T15:01:40.253Z,6.43
2023-02-16T15:03:50.170Z,6.97
2023-02-16T15:05:58.167Z,6.75
2023-02-16T15:08:10.476Z,6.68
2023-02-16T15:10:15.663Z,6.97
2023-02-16T15:12:25.176Z,6.47
2023-02-16T15:14:29.362Z,6.50
2023-02-16T15:16:33.991Z,5.85
2023-02-16T15:18:40.889Z,7.28
2023-02-16T15:20:46.095Z,7.18
2023-02-16T15:22:53.390Z,6.43
2023-02-16T15:24:59.629Z,6.57
2023-02-16T15:27:02.766Z,6.50
2023-02-16T15:29:26.351Z,7.97
2023-02-16T15:31:33.378Z,7.85
2023-02-16T15:33:38.936Z,7.13
2023-02-16T15:35:44.084Z,7.25
2023-02-16T15:37:46.900Z,8.32
2023-02-16T15:40:08.675Z,7.75
2023-02-16T15:42:21.558Z,6.75
2023-02-16T15:44:31.452Z,7.03
2023-02-16T15:46:36.965Z,7.35
2023-02-16T15:48:40.993Z,7.60
2023-02-16T15:50:44.504Z,6.50
2023-02-16T15:52:48.669Z,7.05
2023-02-16T15:54:51.849Z,7.72
2023-02-16T15:56:56.373Z,7.93
2023-02-16T15:59:02.601Z,11.93
2023-02-16T16:01:05.873Z,11.57
2023-02-16T16:03:13.590Z,14.57
2023-02-16T16:05:23.990Z,15.80
2023-02-16T16:07:29.204Z,15.52
2023-02-16T16:09:33.829Z,16.33
2023-02-16T16:11:38.165Z,19.50
2023-02-16T16:13:42.433Z,20.85
2023-02-16T16:15:50.651Z,26.83
2023-02-16T16:17:56.848Z,24.27
2023-02-16T16:20:18.923Z,23.77
2023-02-16T16:22:39.272Z,21.27
2023-02-16T16:24:45.202Z,21.08
2023-02-16T16:26:55.239Z,23.17
2023-02-16T16:28:58.171Z,25.30
2023-02-16T16:31:09.856Z,29.75
2023-02-16T16:33:17.728Z,30.08
2023-02-16T16:35:22.723Z,30.15
2023-02-16T16:37:29.100Z,27.58
2023-02-16T16:39:33.831Z,26.63
2023-02-16T16:41:37.420Z,28.67
2023-02-16T16:43:54.329Z,28.20
2023-02-16T16:46:11.998Z,26.23
2023-02-16T16:48:20.837Z,26.63
2023-02-16T16:50:33.005Z,30.17
2023-02-16T16:52:42.074Z,31.95
2023-02-16T16:54:46.330Z,29.55
2023-02-16T16:56:49.105Z,26.92
2023-02-16T16:58:53.279Z,27.88
2023-02-16T17:00:56.067Z,29.95
2023-02-16T17:02:59.189Z,29.38
2023-02-16T17:05:03.358Z,27.85
2023-02-16T17:07:06.587Z,28.90
2023-02-16T17:09:09.328Z,28.85
2023-02-16T17:11:16.968Z,32.50
2023-02-16T17:13:22.210Z,29.30
2023-02-16T17:15:36.545Z,28.05
2023-02-16T17:17:39.697Z,25.88
2023-02-16T17:19:42.591Z,26.70
2023-02-16T17:21:48.138Z,26.55
2023-02-16T17:23:53.430Z,26.25
2023-02-16T17:25:56.386Z,26.95
2023-02-16T17:27:59.143Z,26.52
2023-02-16T17:30:01.971Z,25.15
2023-02-16T17:32:05.111Z,26.45
2023-02-16T17:34:08.648Z,27.65
2023-02-16T17:36:15.530Z,25.58
2023-02-16T17:38:21.672Z,27.65
2023-02-16T17:40:25.413Z,28.90
2023-02-16T17:42:28.356Z,28.55
2023-02-16T17:44:31.184Z,27.52
2023-02-16T17:46:34.077Z,26.20
2023-02-16T17:48:37.473Z,28.73
2023-02-16T17:50:40.243Z,30.27
2023-02-16T17:52:43.986Z,28.55
2023-02-16T17:54:48.158Z,33.47
2023-02-16T17:56:50.973Z,29.65
2023-02-16T17:58:53.867Z,27.58
2023-02-16T18:00:56.710Z,26.35
2023-02-16T18:02:59.489Z,25.80
2023-02-16T18:05:02.379Z,27.98
2023-02-16T18:07:05.211Z,29.60
2023-02-16T18:09:08.051Z,27.80
2023-02-16T18:11:12.557Z,25.55
2023-02-16T18:13:15.891Z,26.73
2023-02-16T18:15:19.010Z,26.77
2023-02-16T18:17:21.821Z,26.65
2023-02-16T18:19:24.654Z,26.33
2023-02-16T18:21:27.448Z,27.85
2023-02-16T18:23:31.187Z,26.60
2023-02-16T18:25:34.355Z,27.75
2023-02-16T18:27:38.459Z,27.75
2023-02-16T18:29:41.310Z,25.02
2023-02-16T18:31:45.225Z,23.20
2023-02-16T18:33:48.027Z,28.97
2023-02-16T18:35:53.638Z,25.70
2023-02-16T18:37:56.381Z,25.73
2023-02-16T18:39:59.226Z,23.90
2023-02-16T18:42:02.031Z,20.80
2023-02-16T18:44:07.133Z,19.75
2023-02-16T18:46:10.821Z,19.45
2023-02-16T18:48:14.086Z,17.80
2023-02-16T18:50:16.960Z,17.58
2023-02-16T18:52:20.138Z,16.40
2023-02-16T18:54:24.164Z,16.25
2023-02-16T18:56:27.560Z,18.77
2023-02-16T18:58:30.486Z,17.00
2023-02-16T19:00:34.676Z,17.98
2023-02-16T19:02:37.678Z,17.17
2023-02-16T19:04:40.684Z,16.52
2023-02-16T19:06:43.530Z,17.65
2023-02-16T19:08:47.421Z,16.58
2023-02-16T19:10:50.259Z,14.73
2023-02-16T19:12:53.196Z,13.93
2023-02-16T19:14:55.947Z,16.45
2023-02-16T19:17:00.099Z,13.45
2023-02-16T19:19:02.857Z,15.18
2023-02-16T19:21:07.496Z,13.50
2023-02-16T19:23:10.321Z,13.43
2023-02-16T19:25:13.123Z,17.02
2023-02-16T19:27:15.983Z,53.45
2023-02-16T19:29:18.753Z,45.40
2023-02-16T19:31:23.612Z,44.17
2023-02-16T19:35:30.716Z,23.90
2023-02-16T19:37:33.476Z,20.90
2023-02-16T19:39:36.439Z,17.60
2023-02-16T19:41:41.528Z,15.13
2023-02-16T19:43:44.746Z,12.38
2023-02-16T19:45:47.699Z,13.15
2023-02-16T19:47:51.984Z,11.18
2023-02-16T19:49:56.078Z,10.57
2023-02-16T19:52:02.263Z,10.10
2023-02-16T19:54:05.280Z,10.93
2023-02-16T19:56:10.814Z,13.93
2023-02-16T19:58:13.612Z,12.57
2023-02-16T20:00:16.727Z,11.43
2023-02-16T20:02:19.617Z,10.02
2023-02-16T20:04:22.861Z,9.55
2023-02-16T20:06:31.673Z,10.07
2023-02-16T20:08:34.467Z,9.32
2023-02-16T20:10:41.055Z,10.75
2023-02-16T20:12:46.221Z,8.70
2023-02-16T20:14:49.085Z,9.88
2023-02-16T20:16:51.910Z,10.80
2023-02-16T20:18:56.092Z,10.68
2023-02-16T20:20:59.930Z,9.45
2023-02-16T20:23:04.071Z,8.70
2023-02-16T20:25:07.325Z,8.82
2023-02-16T20:27:10.059Z,10.10
2023-02-16T20:29:15.378Z,19.50
2023-02-16T20:31:21.857Z,11.07
2023-02-16T20:33:24.943Z,10.13
2023-02-16T20:35:27.810Z,9.80
2023-02-16T20:37:31.121Z,9.50
2023-02-16T20:39:35.331Z,10.52
2023-02-16T20:41:38.224Z,11.07
2023-02-16T20:43:41.573Z,8.98
2023-02-16T20:45:44.424Z,10.45
2023-02-16T20:47:47.200Z,11.35
2023-02-16T20:49:49.964Z,12.93
2023-02-16T20:51:52.804Z,11.15
2023-02-16T20:53:55.577Z,10.38
2023-02-16T20:56:03.520Z,10.55
2023-02-16T20:58:06.384Z,10.07
2023-02-16T21:00:13.226Z,9.48
2023-02-16T21:02:16.098Z,9.90
2023-02-16T21:04:20.012Z,9.32
2023-02-16T21:06:23.489Z,10.57
2023-02-16T21:08:26.433Z,10.27
2023-02-16T21:10:29.192Z,10.07
2023-02-16T21:12:33.373Z,8.65
2023-02-16T21:14:37.173Z,9.43
2023-02-16T21:16:40.896Z,8.98
2023-02-16T21:18:43.886Z,9.45
2023-02-16T21:20:46.632Z,8.98
2023-02-16T21:22:49.550Z,10.35
2023-02-16T21:24:52.725Z,10.32
2023-02-16T21:26:55.549Z,9.93
2023-02-16T21:28:59.936Z,8.73
2023-02-16T21:31:04.944Z,9.43
2023-02-16T21:33:07.853Z,9.25
2023-02-16T21:35:10.736Z,10.68
2023-02-16T21:37:13.596Z,11.95
2023-02-16T21:39:16.515Z,10.25
2023-02-16T21:41:28.598Z,11.70
2023-02-16T21:43:31.385Z,12.77
2023-02-16T21:45:35.659Z,24.33
2023-02-16T21:47:56.018Z,29.05
2023-02-16T21:49:59.336Z,37.95
2023-02-16T21:52:02.299Z,21.50
2023-02-16T21:54:06.673Z,15.38
2023-02-16T21:56:17.975Z,10.57
2023-02-16T21:58:21.372Z,11.40
2023-02-16T22:00:24.492Z,10.02
2023-02-16T22:02:28.592Z,10.55
2023-02-16T22:04:31.343Z,9.75
2023-02-16T22:06:36.075Z,9.65
2023-02-16T22:08:38.921Z,9.10
2023-02-16T22:10:42.079Z,8.77
2023-02-16T22:12:44.961Z,8.38
2023-02-16T22:14:47.879Z,8.57
2023-02-16T22:16:51.033Z,8.85
2023-02-16T22:18:58.690Z,8.80
2023-02-16T22:21:03.118Z,8.55
2023-02-16T22:23:05.927Z,9.25
2023-02-16T22:25:09.000Z,9.48
2023-02-16T22:27:11.867Z,9.68
2023-02-16T22:29:15.157Z,9.35
2023-02-16T22:31:19.070Z,8.60
2023-02-16T22:33:22.121Z,10.00
2023-02-16T22:35:26.214Z,12.60
2023-02-16T22:37:28.985Z,11.35
2023-02-16T22:39:32.202Z,10.60
2023-02-16T22:41:35.953Z,8.13
2023-02-16T22:43:39.747Z,12.35
2023-02-16T22:45:42.645Z,10.35
2023-02-16T22:47:45.679Z,25.25
2023-02-16T22:49:48.470Z,13.07
2023-02-16T22:51:52.645Z,23.10
2023-02-16T22:53:55.600Z,12.40
2023-02-16T22:55:58.432Z,15.25
2023-02-16T22:58:01.270Z,20.25
2023-02-16T23:00:06.225Z,9.50
2023-02-16T23:02:09.143Z,15.10
2023-02-16T23:04:14.363Z,21.63
2023-02-16T23:06:19.880Z,27.02
2023-02-16T23:08:24.114Z,17.60
2023-02-16T23:10:26.856Z,12.35
2023-02-16T23:12:29.682Z,13.88
2023-02-16T23:14:32.438Z,9.82
2023-02-16T23:16:35.324Z,8.23
2023-02-16T23:18:38.657Z,7.85
2023-02-16T23:20:41.501Z,8.20
2023-02-16T23:22:44.344Z,7.55
2023-02-16T23:25:09.630Z,8.30
2023-02-16T23:27:12.485Z,8.20
2023-02-16T23:29:15.517Z,7.97
2023-02-16T23:31:18.903Z,7.95
2023-02-16T23:33:21.736Z,9.25
2023-02-16T23:35:24.541Z,7.65
2023-02-16T23:37:30.338Z,6.97
2023-02-16T23:39:33.078Z,8.05
2023-02-16T23:41:37.733Z,7.63
2023-02-16T23:43:40.728Z,6.97
2023-02-16T23:45:43.555Z,7.13
2023-02-16T23:47:46.593Z,7.30
2023-02-16T23:49:49.458Z,7.40
2023-02-16T23:51:52.300Z,7.20
2023-02-16T23:53:55.758Z,7.40
2023-02-16T23:55:59.924Z,7.10
2023-02-16T23:58:04.006Z,5.93
